Thunder radar more information blitzortung!


Radar de pluja more information rain snow radar


Visita la nostra xarxa de llocs de meteo:

Template documentation
and downloads

And another site



No particular awareness of the weather is required.    There are no Weather-warnings

Pagina Historial Weather Underground text

Diari Resum Octubre 12, 2017 Unitats:  Mètric    Imperial   Tant
« Previous Dia
SegĂźent Dia »
Diari Setmana Mensual Anual Personalitzada
  Maxima: Minima: Media:
Temperatura: 27.3 °C 13.8 °C 21 °C
Punt de rosada: 17.6 °C 12.2 °C 15.8 °C
Humitat: 93 % 51 % 74 %
Wind Speed: 15.6 km/h 0.0 km/h 5.7 km/h
RĂ fegues de vent: 15.6 km/h - -
Vent:- - SSW
Pression baro: 1027.0 hPa 1022.9 hPa -
Precipitacions: 0.0 mm    
Historical Graphs
 
 
Dades de taula per Octubre 12, 2017
Temps Temperatura Punt de rosada Pression baro Vent Wind Speed RĂ fegues de vent Humitat Rainfall Rate (Hourly)
00:00 15.0 °C 13.4 °C 1023.9 hPa Calm   1.6 km/h 90 % 0.0 mm
00:02 18.4 °C 15.7 °C 1023.9 hPa West 1.9 km/h   84 % 0.0 mm
00:07 18.4 °C 15.7 °C 1023.9 hPa West 1.9 km/h 2.3 km/h 84 % 0.0 mm
00:10 14.9 °C 13.3 °C 1023.9 hPa Calm   1.6 km/h 90 % 0.0 mm
00:12 18.4 °C 15.8 °C 1023.9 hPa West 2.6 km/h 2.6 km/h 85 % 0.0 mm
00:20 14.7 °C 13.1 °C 1023.9 hPa Calm   1.6 km/h 90 % 0.0 mm
00:30 14.6 °C 13.0 °C 1023.9 hPa SW 3.2 km/h 3.2 km/h 90 % 0.0 mm
00:40 14.4 °C 12.6 °C 1023.9 hPa SW 3.2 km/h 4.8 km/h 89 % 0.0 mm
00:50 14.2 °C 12.4 °C 1023.9 hPa SW 1.6 km/h 3.2 km/h 89 % 0.0 mm
01:00 14.1 °C 12.5 °C 1023.9 hPa Calm   3.2 km/h 90 % 0.0 mm
01:10 14.1 °C 12.5 °C 1023.9 hPa Calm   3.2 km/h 90 % 0.0 mm
01:20 14.1 °C 12.5 °C 1023.9 hPa SW 3.2 km/h 3.2 km/h 90 % 0.0 mm
01:30 14.1 °C 12.5 °C 1023.9 hPa SW 1.6 km/h 3.2 km/h 90 % 0.0 mm
01:40 14.1 °C 12.5 °C 1023.9 hPa WSW 3.2 km/h 3.2 km/h 90 % 0.0 mm
01:50 14.2 °C 12.6 °C 1023.9 hPa WSW 1.6 km/h 3.2 km/h 90 % 0.0 mm
02:00 14.1 °C 12.5 °C 1024.9 hPa WSW 3.2 km/h 3.2 km/h 90 % 0.0 mm
02:10 13.9 °C 12.3 °C 1024.9 hPa SW 3.2 km/h 3.2 km/h 90 % 0.0 mm
02:20 13.8 °C 12.2 °C 1024.9 hPa WSW 1.6 km/h 3.2 km/h 90 % 0.0 mm
02:30 13.9 °C 12.4 °C 1026.0 hPa SW 1.6 km/h 4.8 km/h 91 % 0.0 mm
02:50 14.2 °C 12.9 °C 1026.0 hPa Calm   3.2 km/h 92 % 0.0 mm
03:00 14.1 °C 12.8 °C 1026.0 hPa Calm   1.6 km/h 92 % 0.0 mm
03:10 14.1 °C 12.8 °C 1026.0 hPa Calm     92 % 0.0 mm
03:20 14.0 °C 12.7 °C 1026.0 hPa Calm     92 % 0.0 mm
03:30 14.1 °C 12.8 °C 1026.0 hPa Calm     92 % 0.0 mm
03:40 14.2 °C 13.1 °C 1026.0 hPa Calm     93 % 0.0 mm
03:50 14.3 °C 13.0 °C 1026.0 hPa Calm     92 % 0.0 mm
04:00 14.4 °C 13.3 °C 1026.0 hPa Calm     93 % 0.0 mm
04:10 14.9 °C 13.8 °C 1026.0 hPa WSW 1.6 km/h 1.6 km/h 93 % 0.0 mm
04:20 15.2 °C 14.1 °C 1026.0 hPa WSW 1.6 km/h 3.2 km/h 93 % 0.0 mm
04:30 15.5 °C 14.4 °C 1026.0 hPa Calm   1.6 km/h 93 % 0.0 mm
04:40 16.0 °C 14.9 °C 1026.0 hPa SW 3.2 km/h 3.2 km/h 93 % 0.0 mm
04:50 16.1 °C 14.9 °C 1026.0 hPa Calm   3.2 km/h 93 % 0.0 mm
05:00 16.4 °C 15.3 °C 1026.0 hPa Calm     93 % 0.0 mm
05:10 16.6 °C 15.4 °C 1026.0 hPa South 1.6 km/h 3.2 km/h 93 % 0.0 mm
05:20 16.8 °C 15.5 °C 1027.0 hPa North 1.6 km/h 3.2 km/h 92 % 0.0 mm
05:30 17.2 °C 15.7 °C 1027.0 hPa NNW 1.6 km/h 3.2 km/h 91 % 0.0 mm
05:40 17.4 °C 15.7 °C 1027.0 hPa SSW 3.2 km/h 4.8 km/h 90 % 0.0 mm
05:50 17.9 °C 15.9 °C 1027.0 hPa NE 1.6 km/h 3.2 km/h 88 % 0.0 mm
06:00 18.4 °C 16.0 °C 1027.0 hPa Calm   1.6 km/h 86 % 0.0 mm
11:01 18.6 °C 16.2 °C 1027.0 hPa NNW 1.9 km/h   86 % 0.0 mm
11:06 18.6 °C 16.0 °C 1027.0 hPa NNE 2.3 km/h 2.3 km/h 85 % 0.0 mm
11:11 18.7 °C 15.9 °C 1027.0 hPa South 1.9 km/h   84 % 0.0 mm
11:16 19.0 °C 16.1 °C 1027.0 hPa SW 3.7 km/h 3.7 km/h 83 % 0.0 mm
11:21 19.1 °C 16.2 °C 1027.0 hPa South 3.7 km/h 3.7 km/h 83 % 0.0 mm
11:31 19.2 °C 16.1 °C 1027.0 hPa ESE 1.9 km/h 1.9 km/h 82 % 0.0 mm
11:36 19.5 °C 16.3 °C 1027.0 hPa SE 2.6 km/h 2.6 km/h 82 % 0.0 mm
11:41 19.9 °C 16.7 °C 1027.0 hPa WNW 3.7 km/h 3.7 km/h 82 % 0.0 mm
11:46 20.0 °C 16.6 °C 1027.0 hPa NNE 3.7 km/h 3.7 km/h 81 % 0.0 mm
11:47 20.1 °C 16.6 °C 1027.0 hPa NNE 1.9 km/h   80 % 0.0 mm
11:57 20.3 °C 16.6 °C 1027.0 hPa NNW 1.9 km/h   79 % 0.0 mm
12:02 20.7 °C 16.7 °C 1027.0 hPa NE 1.9 km/h   78 % 0.0 mm
12:07 20.8 °C 16.6 °C 1027.0 hPa SE 5.6 km/h 5.6 km/h 77 % 0.0 mm
12:12 21.0 °C 16.6 °C 1027.0 hPa ESE 3.7 km/h 3.7 km/h 76 % 0.0 mm
12:17 21.7 °C 17.3 °C 1027.0 hPa ESE 3.9 km/h 3.9 km/h 76 % 0.0 mm
12:22 22.0 °C 17.4 °C 1027.0 hPa East 3.5 km/h 3.5 km/h 75 % 0.0 mm
12:27 22.2 °C 17.3 °C 1027.0 hPa NNE 5.8 km/h 5.8 km/h 74 % 0.0 mm
12:32 22.0 °C 16.7 °C 1027.0 hPa ENE 5.6 km/h 5.6 km/h 72 % 0.0 mm
12:37 22.3 °C 17.2 °C 1027.0 hPa ENE 6.1 km/h 6.1 km/h 73 % 0.0 mm
12:42 22.6 °C 17.5 °C 1027.0 hPa ENE 5.8 km/h 5.8 km/h 73 % 0.0 mm
12:44 22.5 °C 17.2 °C 1027.0 hPa NNE 5.6 km/h 5.6 km/h 72 % 0.0 mm
12:49 22.4 °C 17.1 °C 1027.0 hPa NE 7.4 km/h 7.4 km/h 72 % 0.0 mm
12:54 22.4 °C 17.1 °C 1027.0 hPa WNW 1.9 km/h 1.9 km/h 72 % 0.0 mm
12:59 22.7 °C 17.4 °C 1027.0 hPa NW 3.7 km/h 3.7 km/h 72 % 0.0 mm
13:04 23.1 °C 17.3 °C 1027.0 hPa ESE 3.7 km/h 3.7 km/h 70 % 0.0 mm
13:09 23.3 °C 17.3 °C 1027.0 hPa SE 5.6 km/h 5.6 km/h 69 % 0.0 mm
13:14 23.2 °C 16.7 °C 1027.0 hPa SW 5.6 km/h 5.6 km/h 67 % 0.0 mm
13:19 23.4 °C 17.4 °C 1027.0 hPa NE 5.6 km/h 5.6 km/h 69 % 0.0 mm
13:24 23.0 °C 16.6 °C 1027.0 hPa SE 5.6 km/h 5.6 km/h 67 % 0.0 mm
13:29 23.7 °C 17.4 °C 1026.0 hPa ESE 6.4 km/h 6.4 km/h 68 % 0.0 mm
13:34 23.3 °C 16.6 °C 1026.0 hPa SE 9.0 km/h 9.0 km/h 66 % 0.0 mm
13:39 23.3 °C 16.8 °C 1026.0 hPa ENE 5.6 km/h 5.6 km/h 67 % 0.0 mm
13:44 23.6 °C 17.3 °C 1024.9 hPa WNW 3.7 km/h 3.7 km/h 68 % 0.0 mm
13:49 23.9 °C 17.4 °C 1024.9 hPa SW 3.7 km/h 3.7 km/h 67 % 0.0 mm
13:54 23.9 °C 16.7 °C 1024.9 hPa ESE 7.4 km/h 7.4 km/h 64 % 0.0 mm
13:59 24.0 °C 16.8 °C 1024.9 hPa ENE 9.3 km/h 9.3 km/h 64 % 0.0 mm
14:04 24.5 °C 17.5 °C 1024.9 hPa SSW 1.9 km/h 2.3 km/h 65 % 0.0 mm
14:09 24.6 °C 17.6 °C 1024.9 hPa SE 5.6 km/h 5.6 km/h 65 % 0.0 mm
14:14 24.9 °C 17.6 °C 1026.0 hPa SSW 11.1 km/h 11.1 km/h 64 % 0.0 mm
14:19 25.4 °C 17.6 °C 1026.0 hPa SW 7.4 km/h 7.4 km/h 62 % 0.0 mm
14:24 25.6 °C 17.5 °C 1026.0 hPa SW 9.3 km/h 9.3 km/h 61 % 0.0 mm
14:29 25.9 °C 17.6 °C 1026.0 hPa SSE 3.7 km/h 3.7 km/h 60 % 0.0 mm
14:34 25.4 °C 16.8 °C 1026.0 hPa South 9.3 km/h 9.3 km/h 59 % 0.0 mm
14:39 25.6 °C 17.0 °C 1026.0 hPa SSE 9.3 km/h 9.3 km/h 59 % 0.0 mm
14:44 25.8 °C 17.4 °C 1026.0 hPa WSW 9.7 km/h 10.3 km/h 60 % 0.0 mm
14:49 25.6 °C 17.0 °C 1026.0 hPa SE 11.1 km/h 11.1 km/h 59 % 0.0 mm
14:54 25.7 °C 16.8 °C 1026.0 hPa SW 9.3 km/h 9.3 km/h 58 % 0.0 mm
14:59 25.8 °C 16.9 °C 1024.9 hPa SSE 12.6 km/h 12.6 km/h 58 % 0.0 mm
15:04 25.5 °C 16.1 °C 1024.9 hPa North 5.6 km/h 5.6 km/h 56 % 0.0 mm
15:09 25.9 °C 16.7 °C 1024.9 hPa SW 7.4 km/h 7.4 km/h 57 % 0.0 mm
15:14 26.3 °C 16.8 °C 1024.9 hPa WSW 11.1 km/h 11.1 km/h 56 % 0.0 mm
15:19 26.2 °C 16.7 °C 1024.9 hPa WSW 6.1 km/h 6.1 km/h 56 % 0.0 mm
15:24 26.4 °C 16.9 °C 1024.9 hPa SSW 12.2 km/h 12.2 km/h 56 % 0.0 mm
15:29 26.4 °C 16.6 °C 1024.9 hPa SW 7.4 km/h 7.4 km/h 55 % 0.0 mm
15:34 26.5 °C 16.7 °C 1024.9 hPa WSW 5.6 km/h 5.6 km/h 55 % 0.0 mm
15:39 26.5 °C 16.7 °C 1024.9 hPa SSW 5.6 km/h 5.6 km/h 55 % 0.0 mm
15:44 26.5 °C 16.2 °C 1023.9 hPa SSE 10.0 km/h 10.0 km/h 53 % 0.0 mm
15:49 26.7 °C 16.9 °C 1023.9 hPa SW 6.4 km/h 6.4 km/h 55 % 0.0 mm
15:54 26.8 °C 17.0 °C 1023.9 hPa West 7.4 km/h 7.4 km/h 55 % 0.0 mm
15:59 26.8 °C 16.7 °C 1023.9 hPa West 9.3 km/h 9.3 km/h 54 % 0.0 mm
16:04 26.9 °C 16.8 °C 1023.9 hPa South 9.3 km/h 9.3 km/h 54 % 0.0 mm
16:09 27.3 °C 16.6 °C 1023.9 hPa SW 12.6 km/h 12.6 km/h 52 % 0.0 mm
16:14 26.9 °C 16.5 °C 1023.9 hPa South 9.3 km/h 9.3 km/h 53 % 0.0 mm
16:19 27.1 °C 16.4 °C 1023.9 hPa SW 7.4 km/h 7.4 km/h 52 % 0.0 mm
16:24 26.8 °C 16.4 °C 1023.9 hPa SW 9.3 km/h 9.3 km/h 53 % 0.0 mm
16:29 26.6 °C 15.9 °C 1022.9 hPa SW 11.1 km/h 11.1 km/h 52 % 0.0 mm
16:34 26.7 °C 16.0 °C 1022.9 hPa SSW 3.7 km/h 4.7 km/h 52 % 0.0 mm
16:39 27.0 °C 16.0 °C 1022.9 hPa SSW 5.8 km/h 5.8 km/h 51 % 0.0 mm
16:44 26.8 °C 16.1 °C 1023.9 hPa SW 9.3 km/h 9.3 km/h 52 % 0.0 mm
16:49 26.6 °C 15.9 °C 1023.9 hPa South 9.3 km/h 9.3 km/h 52 % 0.0 mm
16:54 26.7 °C 16.3 °C 1023.9 hPa SW 7.4 km/h 7.4 km/h 53 % 0.0 mm
16:59 26.8 °C 16.4 °C 1023.9 hPa WSW 9.3 km/h 9.3 km/h 53 % 0.0 mm
17:09 25.9 °C 15.6 °C 1023.9 hPa SW 14.8 km/h 14.8 km/h 53 % 0.0 mm
17:19 25.7 °C 15.7 °C 1023.9 hPa SSW 9.3 km/h 9.3 km/h 54 % 0.0 mm
17:24 25.6 °C 15.6 °C 1023.9 hPa WSW 11.1 km/h 11.1 km/h 54 % 0.0 mm
17:29 25.4 °C 15.7 °C 1023.9 hPa SSW 11.1 km/h 11.1 km/h 55 % 0.0 mm
17:34 25.1 °C 15.4 °C 1023.9 hPa SW 12.6 km/h 12.6 km/h 55 % 0.0 mm
17:39 25.0 °C 15.3 °C 1023.9 hPa SW 11.9 km/h 11.9 km/h 55 % 0.0 mm
17:44 24.7 °C 15.6 °C 1023.9 hPa SSW 13.0 km/h 13.0 km/h 57 % 0.0 mm
17:49 24.6 °C 15.5 °C 1023.9 hPa SW 12.6 km/h 12.6 km/h 57 % 0.0 mm
17:54 24.5 °C 15.7 °C 1023.9 hPa SW 11.1 km/h 11.1 km/h 58 % 0.0 mm
17:59 24.3 °C 15.5 °C 1023.9 hPa WSW 11.1 km/h 11.1 km/h 58 % 0.0 mm
18:04 24.4 °C 15.9 °C 1023.9 hPa SSW 13.0 km/h 13.0 km/h 59 % 0.0 mm
18:09 24.2 °C 15.7 °C 1023.9 hPa SW 13.0 km/h 13.0 km/h 59 % 0.0 mm
18:14 23.9 °C 15.7 °C 1023.9 hPa West 9.3 km/h 9.3 km/h 60 % 0.0 mm
18:19 23.8 °C 15.8 °C 1023.9 hPa WSW 15.6 km/h 15.6 km/h 61 % 0.0 mm
18:24 23.6 °C 15.6 °C 1023.9 hPa SW 9.3 km/h 9.3 km/h 61 % 0.0 mm
18:26 23.6 °C 15.6 °C 1023.9 hPa SW 9.3 km/h 9.3 km/h 61 % 0.0 mm
18:31 23.5 °C 15.8 °C 1023.9 hPa WSW 11.1 km/h 11.1 km/h 62 % 0.0 mm
18:36 23.3 °C 15.8 °C 1023.9 hPa SW 11.1 km/h 11.1 km/h 63 % 0.0 mm
18:41 23.2 °C 15.8 °C 1023.9 hPa SW 13.0 km/h 13.0 km/h 63 % 0.0 mm
18:46 23.0 °C 15.8 °C 1023.9 hPa SSW 9.3 km/h 9.5 km/h 64 % 0.0 mm
18:51 22.8 °C 15.6 °C 1023.9 hPa SSE 7.4 km/h 7.4 km/h 64 % 0.0 mm
18:56 22.6 °C 15.7 °C 1023.9 hPa SSW 7.4 km/h 7.4 km/h 65 % 0.0 mm
19:01 22.4 °C 15.5 °C 1024.9 hPa WSW 6.4 km/h 6.4 km/h 65 % 0.0 mm
19:06 22.3 °C 15.7 °C 1024.9 hPa West 5.8 km/h 5.8 km/h 66 % 0.0 mm
19:11 22.1 °C 15.4 °C 1024.9 hPa SW 9.3 km/h 9.3 km/h 66 % 0.0 mm
19:16 22.0 °C 15.6 °C 1023.9 hPa SW 7.6 km/h 7.6 km/h 67 % 0.0 mm
19:21 21.8 °C 15.6 °C 1023.9 hPa SW 7.4 km/h 7.4 km/h 68 % 0.0 mm
19:26 21.7 °C 15.8 °C 1023.9 hPa SSW 14.8 km/h 14.8 km/h 69 % 0.0 mm
19:31 21.5 °C 15.8 °C 1024.9 hPa SW 9.3 km/h 9.3 km/h 70 % 0.0 mm
19:36 21.4 °C 15.7 °C 1024.9 hPa SW 9.3 km/h 9.3 km/h 70 % 0.0 mm
19:41 21.3 °C 15.8 °C 1024.9 hPa SW 11.1 km/h 11.1 km/h 71 % 0.0 mm
19:46 21.1 °C 15.6 °C 1023.9 hPa WSW 9.3 km/h 9.3 km/h 71 % 0.0 mm
19:51 21.0 °C 15.8 °C 1023.9 hPa SW 9.3 km/h 9.3 km/h 72 % 0.0 mm
19:56 20.9 °C 15.9 °C 1023.9 hPa SW 13.0 km/h 13.0 km/h 73 % 0.0 mm
20:01 20.8 °C 15.8 °C 1024.9 hPa SW 9.3 km/h 9.3 km/h 73 % 0.0 mm
20:06 20.8 °C 16.0 °C 1024.9 hPa SW 9.3 km/h 9.3 km/h 74 % 0.0 mm
20:11 20.7 °C 15.9 °C 1024.9 hPa SW 9.3 km/h 9.3 km/h 74 % 0.0 mm
20:16 20.6 °C 16.0 °C 1024.9 hPa West 9.3 km/h 9.3 km/h 75 % 0.0 mm
20:21 20.6 °C 16.0 °C 1024.9 hPa SSW 7.4 km/h 7.4 km/h 75 % 0.0 mm
20:26 20.5 °C 16.1 °C 1024.9 hPa West 7.9 km/h 7.9 km/h 76 % 0.0 mm
20:31 20.4 °C 16.0 °C 1026.0 hPa WSW 9.3 km/h 9.3 km/h 76 % 0.0 mm
20:36 20.4 °C 16.2 °C 1026.0 hPa West 4.2 km/h 4.2 km/h 77 % 0.0 mm
20:41 20.3 °C 16.1 °C 1026.0 hPa WSW 5.6 km/h 5.6 km/h 77 % 0.0 mm
20:46 20.2 °C 16.1 °C 1026.0 hPa WSW 5.6 km/h 5.6 km/h 77 % 0.0 mm
20:51 20.2 °C 16.1 °C 1026.0 hPa SW 7.4 km/h 7.4 km/h 77 % 0.0 mm
20:56 20.1 °C 16.2 °C 1026.0 hPa SW 7.4 km/h 7.4 km/h 78 % 0.0 mm
21:01 20.1 °C 16.2 °C 1026.0 hPa SW 5.6 km/h 5.6 km/h 78 % 0.0 mm
21:06 20.0 °C 16.1 °C 1026.0 hPa WSW 7.4 km/h 7.4 km/h 78 % 0.0 mm
21:11 20.0 °C 16.1 °C 1026.0 hPa SW 7.4 km/h 7.4 km/h 78 % 0.0 mm
21:16 19.9 °C 16.2 °C 1026.0 hPa SSW 5.6 km/h 5.6 km/h 79 % 0.0 mm
21:21 19.8 °C 16.1 °C 1026.0 hPa WSW 5.6 km/h 5.6 km/h 79 % 0.0 mm
21:26 19.8 °C 16.1 °C 1026.0 hPa SW 3.9 km/h 3.9 km/h 79 % 0.0 mm
21:31 19.7 °C 16.2 °C 1026.0 hPa SW 5.6 km/h 5.6 km/h 80 % 0.0 mm
21:36 19.7 °C 16.2 °C 1026.0 hPa SW 5.0 km/h 5.0 km/h 80 % 0.0 mm
21:41 19.7 °C 16.2 °C 1026.0 hPa West 5.6 km/h 5.6 km/h 80 % 0.0 mm
21:46 19.6 °C 16.2 °C 1027.0 hPa WSW 3.7 km/h 3.7 km/h 81 % 0.0 mm
21:51 19.6 °C 16.2 °C 1027.0 hPa SW 1.9 km/h   81 % 0.0 mm
21:56 19.5 °C 16.3 °C 1027.0 hPa West 1.9 km/h 1.9 km/h 82 % 0.0 mm
22:01 19.5 °C 16.3 °C 1026.0 hPa SW 3.2 km/h   82 % 0.0 mm
22:06 19.5 °C 16.3 °C 1026.0 hPa WSW 1.9 km/h   82 % 0.0 mm
22:11 19.4 °C 16.2 °C 1026.0 hPa WSW 1.9 km/h 1.9 km/h 82 % 0.0 mm
22:16 19.4 °C 16.2 °C 1026.0 hPa West 3.7 km/h 3.7 km/h 82 % 0.0 mm
22:21 19.4 °C 16.2 °C 1026.0 hPa West 1.9 km/h 1.9 km/h 82 % 0.0 mm
22:26 19.3 °C 16.3 °C 1026.0 hPa West 3.7 km/h 3.7 km/h 83 % 0.0 mm
22:31 19.3 °C 16.3 °C 1026.0 hPa WSW 1.9 km/h 1.9 km/h 83 % 0.0 mm
22:36 19.2 °C 16.2 °C 1026.0 hPa WSW 1.9 km/h 1.9 km/h 83 % 0.0 mm
22:41 19.2 °C 16.2 °C 1026.0 hPa WSW 3.7 km/h 3.7 km/h 83 % 0.0 mm
22:46 19.2 °C 16.2 °C 1026.0 hPa WSW 2.6 km/h   83 % 0.0 mm
22:51 19.1 °C 16.2 °C 1026.0 hPa WSW 3.7 km/h 3.7 km/h 83 % 0.0 mm
22:56 19.1 °C 16.3 °C 1026.0 hPa SW 1.9 km/h   84 % 0.0 mm
23:01 19.0 °C 16.2 °C 1026.0 hPa Calm     84 % 0.0 mm
23:06 19.0 °C 16.2 °C 1026.0 hPa WSW 1.9 km/h 1.9 km/h 84 % 0.0 mm
23:11 19.1 °C 16.3 °C 1026.0 hPa West 1.9 km/h 2.3 km/h 84 % 0.0 mm
23:16 19.0 °C 16.2 °C 1026.0 hPa West 3.7 km/h 3.7 km/h 84 % 0.0 mm
23:21 19.0 °C 16.2 °C 1026.0 hPa WSW 3.7 km/h 3.7 km/h 84 % 0.0 mm
23:26 19.0 °C 16.2 °C 1026.0 hPa WSW 3.7 km/h 3.7 km/h 84 % 0.0 mm
23:31 19.0 °C 16.2 °C 1026.0 hPa West 3.7 km/h 3.7 km/h 84 % 0.0 mm
23:36 19.0 °C 16.2 °C 1026.0 hPa SW 3.7 km/h 3.7 km/h 84 % 0.0 mm
23:41 19.0 °C 16.4 °C 1026.0 hPa West 1.9 km/h 2.3 km/h 85 % 0.0 mm
23:46 19.0 °C 16.4 °C 1026.0 hPa West 5.6 km/h 5.6 km/h 85 % 0.0 mm
23:51 19.0 °C 16.4 °C 1026.0 hPa West 3.7 km/h 3.7 km/h 85 % 0.0 mm
23:56 19.0 °C 16.4 °C 1026.0 hPa WSW 7.4 km/h 7.4 km/h 85 % 0.0 mm
Meteo Sesrovires
Elogis d' Weather Underground - 3.5 mb

Guio original per  Jim McMurry - jmcmurry@mwt.net Adaptat per a la plantilla per  Wim van der Kuil - Leuven-Template.eu

Trobareu la nostra informacio del temps tambe a:

Weather Underground

AWEKAS